createdAt,value
2017-09-03T00:00:35.141Z,97020.45
2017-09-03T00:03:02.785Z,97013.22
2017-09-03T00:05:30.399Z,97023.41
2017-09-03T00:07:58.016Z,97015.74
2017-09-03T00:10:25.625Z,97015.73
2017-09-03T00:12:53.248Z,97008.54
2017-09-03T00:15:20.848Z,97012.77
2017-09-03T00:17:48.500Z,97011.86
2017-09-03T00:20:16.093Z,97016.52
2017-09-03T00:22:43.689Z,97018.63
2017-09-03T00:25:11.280Z,97021.17
2017-09-03T00:27:38.913Z,97021.63
2017-09-03T00:30:06.531Z,97025.01
2017-09-03T00:32:34.234Z,97020.31
2017-09-03T00:35:01.825Z,97018.63
2017-09-03T00:37:29.450Z,97020.31
2017-09-03T00:39:57.247Z,97016.95
2017-09-03T00:42:25.329Z,97017.81
2017-09-03T00:44:54.569Z,97019.48
2017-09-03T00:47:22.215Z,97023.75
2017-09-03T00:49:49.832Z,97024.58
2017-09-03T00:52:17.533Z,97022.46
2017-09-03T00:54:45.139Z,97030.53
2017-09-03T00:57:12.741Z,97030.55
2017-09-03T00:59:40.765Z,97028.84
2017-09-03T01:02:08.357Z,97029.28
2017-09-03T01:04:35.957Z,97019.95
2017-09-03T01:07:03.564Z,97019.97
2017-09-03T01:09:31.196Z,97024.21
2017-09-03T01:11:58.815Z,97017.42
2017-09-03T01:14:26.431Z,97020.39
2017-09-03T01:16:54.034Z,97022.52
2017-09-03T01:19:21.680Z,97020.39
2017-09-03T01:21:49.286Z,97007.25
2017-09-03T01:24:17.027Z,97005.95
2017-09-03T01:26:44.626Z,97006.38
2017-09-03T01:29:12.347Z,97007.64
2017-09-03T01:31:40.004Z,97005.95
2017-09-03T01:34:07.613Z,97005.09
2017-09-03T01:36:35.241Z,97010.17
2017-09-03T01:39:02.868Z,97010.59
2017-09-03T01:41:30.469Z,97007.61
2017-09-03T01:43:58.085Z,97004.23
2017-09-03T01:46:26.777Z,97005.05
2017-09-03T01:48:54.416Z,96998.28
2017-09-03T01:51:22.047Z,97003.77
2017-09-03T01:53:49.664Z,97002.46
2017-09-03T01:56:17.286Z,97005.84
2017-09-03T01:58:44.886Z,97010.52
2017-09-03T02:01:17.989Z,97007.55
2017-09-03T02:03:45.648Z,97010.95
2017-09-03T02:06:13.254Z,97000.76
2017-09-03T02:08:40.863Z,97002.48
2017-09-03T02:11:08.449Z,97008.80
2017-09-03T02:13:37.336Z,96999.91
2017-09-03T02:16:04.910Z,97002.45
2017-09-03T02:18:32.942Z,97015.59
2017-09-03T02:21:00.536Z,97008.80
2017-09-03T02:23:28.143Z,97015.13
2017-09-03T02:25:55.782Z,97011.77
2017-09-03T02:28:23.375Z,97014.78
2017-09-03T02:30:51.015Z,97017.73
2017-09-03T02:33:18.599Z,97018.14
2017-09-03T02:35:46.229Z,97014.30
2017-09-03T02:38:13.823Z,97012.63
2017-09-03T02:40:41.454Z,97010.53
2017-09-03T02:43:09.043Z,97007.98
2017-09-03T02:45:36.647Z,97015.21
2017-09-03T02:48:04.238Z,97009.25
2017-09-03T02:50:31.866Z,97006.30
2017-09-03T02:52:59.455Z,97018.17
2017-09-03T02:55:27.183Z,97013.53
2017-09-03T02:57:54.761Z,97013.92
2017-09-03T03:00:22.381Z,97013.89
2017-09-03T03:02:50.699Z,97015.17
2017-09-03T03:05:18.321Z,97012.63
2017-09-03T03:07:45.930Z,97007.53
2017-09-03T03:10:13.532Z,97003.70
2017-09-03T03:12:41.138Z,97002.41
2017-09-03T03:15:08.751Z,96998.19
2017-09-03T03:17:36.342Z,97005.37
2017-09-03T03:20:03.971Z,97009.17
2017-09-03T03:22:32.077Z,97008.34
2017-09-03T03:24:59.696Z,97008.76
2017-09-03T03:27:27.314Z,97000.73
2017-09-03T03:29:54.929Z,97007.97
2017-09-03T03:32:22.515Z,97001.16
2017-09-03T03:34:50.094Z,96999.02
2017-09-03T03:37:17.686Z,97003.66
2017-09-03T03:39:45.319Z,96998.59
2017-09-03T03:42:12.940Z,97002.40
2017-09-03T03:44:40.548Z,97003.26
2017-09-03T03:47:08.143Z,97006.20
2017-09-03T03:49:35.753Z,97007.45
2017-09-03T03:52:03.374Z,96997.70
2017-09-03T03:54:30.976Z,97004.08
2017-09-03T03:56:58.699Z,96993.05
2017-09-03T03:59:26.302Z,96999.45
2017-09-03T04:01:53.920Z,97000.25
2017-09-03T04:04:21.508Z,96993.89
2017-09-03T04:06:49.135Z,96990.94
2017-09-03T04:09:16.739Z,96993.86
2017-09-03T04:11:44.397Z,96992.60
2017-09-03T04:14:13.219Z,96995.55
2017-09-03T04:16:40.855Z,96995.09
2017-09-03T04:19:08.461Z,96998.45
2017-09-03T04:21:36.095Z,97002.27
2017-09-03T04:24:03.724Z,97000.13
2017-09-03T04:26:31.349Z,97005.27
2017-09-03T04:28:58.936Z,97003.16
2017-09-03T04:31:26.562Z,97006.14
2017-09-03T04:33:54.160Z,97009.54
2017-09-03T04:36:21.776Z,97010.35
2017-09-03T04:38:49.367Z,97004.45
2017-09-03T04:41:16.987Z,97007.41
2017-09-03T04:43:44.598Z,97012.46
2017-09-03T04:46:12.215Z,97007.39
2017-09-03T04:48:39.818Z,97012.06
2017-09-03T04:51:07.445Z,97004.41
2017-09-03T04:53:35.042Z,97007.80
2017-09-03T04:56:02.669Z,97015.80
2017-09-03T04:58:30.264Z,97017.08
2017-09-03T05:00:57.887Z,97012.89
2017-09-03T05:03:26.206Z,97019.70
2017-09-03T05:05:53.837Z,97015.48
2017-09-03T05:08:21.422Z,97020.52
2017-09-03T05:10:49.026Z,97017.98
2017-09-03T05:13:16.622Z,97015.48
2017-09-03T05:15:44.650Z,97012.94
2017-09-03T05:18:12.235Z,97028.20
2017-09-03T05:20:39.827Z,97023.58
2017-09-03T05:23:07.451Z,97022.77
2017-09-03T05:25:35.078Z,97029.13
2017-09-03T05:28:02.707Z,97022.80
2017-09-03T05:30:30.307Z,97025.77
2017-09-03T05:32:58.058Z,97028.36
2017-09-03T05:35:25.674Z,97032.59
2017-09-03T05:37:54.067Z,97040.22
2017-09-03T05:40:21.664Z,97038.97
2017-09-03T05:42:49.281Z,97037.72
2017-09-03T05:45:17.013Z,97032.20
2017-09-03T05:47:44.606Z,97038.56
2017-09-03T05:50:12.277Z,97035.61
2017-09-03T05:52:40.262Z,97039.00
2017-09-03T05:55:07.862Z,97037.77
2017-09-03T05:57:35.636Z,97044.96
2017-09-03T06:00:03.212Z,97042.42
2017-09-03T06:02:30.857Z,97044.09
2017-09-03T06:04:58.521Z,97043.66
2017-09-03T06:07:26.168Z,97048.76
2017-09-03T06:09:53.781Z,97055.53
2017-09-03T06:12:21.439Z,97056.41
2017-09-03T06:14:49.028Z,97052.60
2017-09-03T06:17:16.646Z,97058.09
2017-09-03T06:19:44.270Z,97061.94
2017-09-03T06:22:11.886Z,97058.56
2017-09-03T06:24:39.569Z,97057.32
2017-09-03T06:27:07.252Z,97058.14
2017-09-03T06:29:34.969Z,97062.83
2017-09-03T06:32:02.592Z,97067.09
2017-09-03T06:34:30.223Z,97059.07
2017-09-03T06:36:57.832Z,97067.96
2017-09-03T06:39:25.531Z,97073.49
2017-09-03T06:41:53.183Z,97062.48
2017-09-03T06:44:21.262Z,97061.23
2017-09-03T06:46:49.191Z,97067.64
2017-09-03T06:49:16.852Z,97060.83
2017-09-03T06:51:44.517Z,97067.21
2017-09-03T06:54:12.214Z,97062.17
2017-09-03T06:56:40.540Z,97062.20
2017-09-03T06:59:09.651Z,97066.44
2017-09-03T07:01:37.270Z,97073.23
2017-09-03T07:04:04.916Z,97067.74
2017-09-03T07:06:32.526Z,97066.08
2017-09-03T07:09:00.223Z,97066.08
2017-09-03T07:11:27.869Z,97063.06
2017-09-03T07:13:55.496Z,97070.30
2017-09-03T07:16:23.119Z,97067.34
2017-09-03T07:18:50.753Z,97061.84
2017-09-03T07:21:18.780Z,97060.16
2017-09-03T07:23:46.484Z,97068.22
2017-09-03T07:26:14.107Z,97064.41
2017-09-03T07:28:41.724Z,97072.07
2017-09-03T07:31:09.319Z,97073.34
2017-09-03T07:33:37.034Z,97070.80
2017-09-03T07:36:04.650Z,97065.25
2017-09-03T07:38:32.254Z,97068.64
2017-09-03T07:40:59.948Z,97071.57
2017-09-03T07:43:27.562Z,97069.91
2017-09-03T07:45:55.271Z,97072.39
2017-09-03T07:48:22.896Z,97067.73
2017-09-03T07:50:51.108Z,97065.58
2017-09-03T07:53:18.724Z,97068.11
2017-09-03T07:55:46.393Z,97068.48
2017-09-03T07:58:14.417Z,97071.56
2017-09-03T08:00:42.023Z,97075.37
2017-09-03T08:03:09.608Z,97066.81
2017-09-03T08:05:37.238Z,97065.95
2017-09-03T08:08:04.907Z,97062.91
2017-09-03T08:10:32.524Z,97061.64
2017-09-03T08:13:00.142Z,97056.42
2017-09-03T08:15:27.816Z,97055.52
2017-09-03T08:17:55.442Z,97063.97
2017-09-03T08:20:23.797Z,97065.27
2017-09-03T08:22:51.379Z,97061.84
2017-09-03T08:25:19.046Z,97062.59
2017-09-03T08:27:46.677Z,97060.88
2017-09-03T08:30:14.314Z,97055.81
2017-09-03T08:32:42.290Z,97062.48
2017-09-03T08:35:09.919Z,97054.20
2017-09-03T08:37:39.092Z,97051.90
2017-09-03T08:40:06.800Z,97048.55
2017-09-03T08:42:34.429Z,97052.00
2017-09-03T08:45:02.054Z,97055.03
2017-09-03T08:47:29.652Z,97049.48
2017-09-03T08:49:57.386Z,97047.27
2017-09-03T08:52:25.013Z,97052.50
2017-09-03T08:54:52.914Z,97048.23
2017-09-03T08:57:20.725Z,97056.00
2017-09-03T08:59:48.370Z,97050.95
2017-09-03T09:02:16.039Z,97053.02
2017-09-03T09:04:43.801Z,97062.36
2017-09-03T09:07:11.399Z,97065.77
2017-09-03T09:09:39.010Z,97059.11
2017-09-03T09:12:06.935Z,97056.19
2017-09-03T09:14:34.648Z,97059.95
2017-09-03T09:17:02.336Z,97060.27
2017-09-03T09:19:29.978Z,97053.27
2017-09-03T09:21:57.585Z,97055.25
2017-09-03T09:24:27.161Z,97053.81
2017-09-03T09:26:54.756Z,97052.36
2017-09-03T09:29:22.361Z,97050.93
2017-09-03T09:31:50.083Z,97047.55
2017-09-03T09:34:17.725Z,97043.30
2017-09-03T09:36:45.804Z,97040.23
2017-09-03T09:39:13.635Z,97043.55
2017-09-03T09:41:41.915Z,97041.44
2017-09-03T09:44:09.547Z,97044.33
2017-09-03T09:46:37.134Z,97040.11
2017-09-03T09:49:04.769Z,97036.52
2017-09-03T09:51:32.500Z,97035.20
2017-09-03T09:54:00.112Z,97041.64
2017-09-03T09:56:27.773Z,97043.22
2017-09-03T09:58:55.429Z,97038.64
2017-09-03T10:01:24.253Z,97038.67
2017-09-03T10:03:51.897Z,97036.03
2017-09-03T10:06:20.816Z,97035.16
2017-09-03T10:08:48.434Z,97036.75
2017-09-03T10:11:16.058Z,97038.17
2017-09-03T10:13:43.669Z,97035.72
2017-09-03T10:16:11.537Z,97036.44
2017-09-03T10:18:39.101Z,97037.94
2017-09-03T10:21:07.058Z,97030.13
2017-09-03T10:23:34.655Z,97026.16
2017-09-03T10:26:02.281Z,97029.48
2017-09-03T10:28:29.895Z,97024.08
2017-09-03T10:30:57.906Z,97016.30
2017-09-03T10:33:25.975Z,97016.20
2017-09-03T10:35:53.600Z,97015.36
2017-09-03T10:38:21.275Z,97012.66
2017-09-03T10:40:48.898Z,97011.51
2017-09-03T10:43:17.080Z,97008.84
2017-09-03T10:45:45.040Z,97005.09
2017-09-03T10:48:12.748Z,97002.76
2017-09-03T10:50:40.400Z,96999.93
2017-09-03T10:53:08.011Z,97005.05
2017-09-03T10:55:37.702Z,97004.11
2017-09-03T10:58:06.932Z,96996.65
2017-09-03T11:00:34.585Z,96998.27
2017-09-03T11:03:02.391Z,96986.09
2017-09-03T11:05:29.989Z,96987.20
2017-09-03T11:07:57.628Z,96985.39
2017-09-03T11:10:25.246Z,96985.16
2017-09-03T11:12:53.178Z,96978.86
2017-09-03T11:15:20.910Z,96984.14
2017-09-03T11:17:48.545Z,96986.17
2017-09-03T11:20:16.180Z,96982.96
2017-09-03T11:22:43.809Z,96983.70
2017-09-03T11:25:11.446Z,96978.58
2017-09-03T11:27:39.072Z,96969.86
2017-09-03T11:30:07.085Z,96963.30
2017-09-03T11:32:34.665Z,96962.02
2017-09-03T11:35:02.263Z,96956.42
2017-09-03T11:37:29.874Z,96954.17
2017-09-03T11:39:57.464Z,96951.26
2017-09-03T11:42:25.095Z,96948.05
2017-09-03T11:44:52.708Z,96946.69
2017-09-03T11:47:20.330Z,96944.86
2017-09-03T11:49:47.970Z,96948.73
2017-09-03T11:52:15.593Z,96946.98
2017-09-03T11:54:44.228Z,96947.80
2017-09-03T11:57:12.269Z,96945.87
2017-09-03T11:59:40.201Z,96947.00
2017-09-03T12:02:07.921Z,96944.32
2017-09-03T12:04:35.678Z,96944.63
2017-09-03T12:07:03.328Z,96944.05
2017-09-03T12:09:31.072Z,96945.67
2017-09-03T12:11:58.710Z,96937.51
2017-09-03T12:14:26.340Z,96939.09
2017-09-03T12:16:53.983Z,96926.33
2017-09-03T12:19:21.731Z,96931.05
2017-09-03T12:21:49.346Z,96931.52
2017-09-03T12:24:18.117Z,96931.56
2017-09-03T12:26:45.745Z,96928.41
2017-09-03T12:29:13.361Z,96929.05
2017-09-03T12:31:41.074Z,96928.68
2017-09-03T12:34:11.312Z,96922.90
2017-09-03T12:36:39.199Z,96926.70
2017-09-03T12:39:08.215Z,96923.22
2017-09-03T12:41:36.703Z,96926.69
2017-09-03T12:44:04.668Z,96942.89
2017-09-03T12:46:32.321Z,96939.27
2017-09-03T12:49:00.036Z,96939.94
2017-09-03T12:51:27.740Z,96945.67
2017-09-03T12:53:55.375Z,96945.99
2017-09-03T12:56:23.371Z,96954.05
2017-09-03T12:58:51.128Z,96948.23
2017-09-03T13:01:19.089Z,96959.17
2017-09-03T13:03:46.792Z,96957.94
2017-09-03T13:06:14.399Z,96962.31
2017-09-03T13:08:42.444Z,96972.61
2017-09-03T13:11:10.209Z,96957.70
2017-09-03T13:13:37.795Z,96952.09
2017-09-03T13:16:05.453Z,96940.62
2017-09-03T13:18:33.089Z,96941.03
2017-09-03T13:21:00.785Z,96939.31
2017-09-03T13:23:28.534Z,96946.52
2017-09-03T13:25:56.236Z,96942.23
2017-09-03T13:28:23.897Z,96946.42
2017-09-03T13:30:51.536Z,96944.70
2017-09-03T13:33:20.116Z,96938.16
2017-09-03T13:35:50.718Z,96949.10
2017-09-03T13:38:19.562Z,96953.63
2017-09-03T13:40:48.043Z,96953.11
2017-09-03T13:43:17.045Z,96948.45
2017-09-03T13:45:44.663Z,96951.45
2017-09-03T13:48:12.469Z,96946.17
2017-09-03T13:50:40.093Z,96953.34
2017-09-03T13:55:35.214Z,96948.47
2017-09-03T13:58:02.823Z,96950.36
2017-09-03T14:00:30.492Z,96951.59
2017-09-03T14:02:58.741Z,96941.69
2017-09-03T14:05:27.093Z,96937.56
2017-09-03T14:07:55.567Z,96937.44
2017-09-03T14:10:24.030Z,96941.55
2017-09-03T14:12:53.832Z,96951.41
2017-09-03T14:15:21.432Z,96944.17
2017-09-03T14:17:49.066Z,96946.76
2017-09-03T14:20:17.900Z,96940.80
2017-09-03T14:25:44.124Z,96943.66
2017-09-03T14:28:12.126Z,96941.93
2017-09-03T14:30:42.324Z,96944.74
2017-09-03T14:33:11.138Z,96943.84
2017-09-03T14:35:43.240Z,96950.23
2017-09-03T14:38:11.044Z,96945.51
2017-09-03T14:40:48.023Z,96937.66
2017-09-03T14:43:19.208Z,96937.27
2017-09-03T14:48:45.772Z,96945.23
2017-09-03T14:51:19.365Z,96938.88
2017-09-03T14:53:50.803Z,96945.88
2017-09-03T14:56:20.432Z,96942.05
2017-09-03T14:58:53.199Z,96950.92
2017-09-03T15:01:23.255Z,96949.04
2017-09-03T15:06:59.082Z,96944.13
2017-09-03T15:09:28.682Z,96943.64
2017-09-03T15:11:58.387Z,96932.95
2017-09-03T15:14:26.730Z,96933.16
2017-09-03T15:17:02.601Z,96940.48
2017-09-03T15:19:34.987Z,96937.17
2017-09-03T15:22:04.425Z,96936.27
2017-09-03T15:24:37.962Z,96931.84
2017-09-03T15:27:07.416Z,96930.32
2017-09-03T15:29:36.781Z,96941.02
2017-09-03T15:32:06.634Z,96937.69
2017-09-03T15:34:36.970Z,96936.61
2017-09-03T15:37:07.058Z,96942.91
2017-09-03T15:39:38.552Z,96934.10
2017-09-03T15:42:07.414Z,96939.19
2017-09-03T15:44:36.874Z,96943.16
2017-09-03T15:47:10.201Z,96947.97
2017-09-03T15:49:38.204Z,96952.89
2017-09-03T15:52:10.165Z,96949.25
2017-09-03T15:54:44.046Z,96956.36
2017-09-03T15:57:17.788Z,96950.73
2017-09-03T15:59:51.801Z,96952.27
2017-09-03T16:05:01.663Z,96943.70
2017-09-03T16:07:34.612Z,96952.47
2017-09-03T16:10:06.842Z,96952.20
2017-09-03T16:12:35.485Z,96953.92
2017-09-03T16:15:05.984Z,96956.58
2017-09-03T16:17:38.980Z,96955.77
2017-09-03T16:20:08.791Z,96947.21
2017-09-03T16:22:40.140Z,96952.89
2017-09-03T16:25:11.317Z,96949.70
2017-09-03T16:30:14.929Z,96948.16
2017-09-03T16:32:43.834Z,96942.72
2017-09-03T16:35:13.404Z,96938.66
2017-09-03T16:37:41.011Z,96937.85
2017-09-03T16:40:09.453Z,96941.65
2017-09-03T16:42:37.055Z,96941.23
2017-09-03T16:45:06.348Z,96944.32
2017-09-03T16:47:34.012Z,96950.36
2017-09-03T16:50:01.634Z,96945.71
2017-09-03T16:52:29.330Z,96947.37
2017-09-03T16:54:56.932Z,96948.17
2017-09-03T16:57:24.613Z,96950.30
2017-09-03T16:59:52.636Z,96952.86
2017-09-03T17:02:20.640Z,96952.85
2017-09-03T17:04:49.391Z,96955.81
2017-09-03T17:07:17.086Z,96957.96
2017-09-03T17:09:44.689Z,96960.56
2017-09-03T17:12:33.587Z,96963.19
2017-09-03T17:15:01.231Z,96965.76
2017-09-03T17:17:41.481Z,96961.55
2017-09-03T17:20:11.772Z,96962.41
2017-09-03T17:22:39.412Z,96962.39
2017-09-03T17:25:13.471Z,96960.28
2017-09-03T17:27:41.269Z,96963.69
2017-09-03T17:30:08.921Z,96961.16
2017-09-03T17:32:38.731Z,96968.87
2017-09-03T17:35:23.603Z,96969.28
2017-09-03T17:40:58.527Z,96970.19
2017-09-03T17:43:42.432Z,96967.26
2017-09-03T17:46:20.081Z,96972.41
2017-09-03T17:48:51.379Z,96976.25
2017-09-03T17:51:24.289Z,96965.61
2017-09-03T17:53:51.915Z,96970.73
2017-09-03T17:56:21.759Z,96973.28
2017-09-03T17:58:49.502Z,96976.70
2017-09-03T18:01:24.346Z,96978.84
2017-09-03T18:03:56.291Z,96983.13
2017-09-03T18:06:28.851Z,96983.55
2017-09-03T18:09:00.946Z,96985.25
2017-09-03T18:11:31.346Z,96984.41
2017-09-03T18:14:03.831Z,96984.84
2017-09-03T18:19:14.714Z,96990.48
2017-09-03T18:21:43.217Z,96996.03
2017-09-03T18:24:14.597Z,96999.45
2017-09-03T18:26:42.344Z,96998.20
2017-09-03T18:29:28.749Z,96999.92
2017-09-03T18:32:03.203Z,97012.72
2017-09-03T18:34:35.241Z,97013.65
2017-09-03T18:37:15.381Z,97012.39
2017-09-03T18:39:49.479Z,97019.25
2017-09-03T18:42:17.142Z,97020.98
2017-09-03T18:45:09.880Z,97018.44
2017-09-03T18:50:24.890Z,97012.54
2017-09-03T18:53:07.855Z,96996.01
2017-09-03T18:55:35.533Z,96988.37
2017-09-03T18:58:05.428Z,96985.00
2017-09-03T19:00:39.419Z,96995.19
2017-09-03T19:03:12.823Z,97003.25
2017-09-03T19:08:47.206Z,97002.39
2017-09-03T19:11:20.649Z,97007.06
2017-09-03T19:13:50.167Z,97005.36
2017-09-03T19:16:20.273Z,97010.88
2017-09-03T19:18:50.522Z,97007.91
2017-09-03T19:21:22.825Z,97008.77
2017-09-03T19:23:51.880Z,97015.14
2017-09-03T19:26:19.662Z,97008.78
2017-09-03T19:28:59.315Z,97010.06
2017-09-03T19:31:32.131Z,97011.75
2017-09-03T19:34:01.724Z,97005.37
2017-09-03T19:36:33.966Z,97009.57
2017-09-03T19:39:02.198Z,97009.12
2017-09-03T19:41:33.004Z,97013.80
2017-09-03T19:44:02.630Z,97019.30
2017-09-03T19:46:31.274Z,97024.77
2017-09-03T19:49:02.618Z,97018.41
2017-09-03T19:51:33.014Z,97019.68
2017-09-03T19:54:03.443Z,97023.50
2017-09-03T19:56:31.210Z,97023.47
2017-09-03T19:59:02.283Z,97013.72
2017-09-03T20:01:31.041Z,97018.80
2017-09-03T20:04:03.234Z,97020.47
2017-09-03T20:06:36.192Z,97015.39
2017-09-03T20:09:05.552Z,97018.79
2017-09-03T20:11:33.643Z,97016.64
2017-09-03T20:14:01.257Z,97016.64
2017-09-03T20:16:28.915Z,97020.05
2017-09-03T20:18:56.538Z,97011.98
2017-09-03T20:21:24.553Z,97012.82
2017-09-03T20:23:52.377Z,97015.78
2017-09-03T20:26:20.532Z,97011.92
2017-09-03T20:28:48.147Z,97008.97
2017-09-03T20:31:15.764Z,97014.05
2017-09-03T20:33:43.362Z,97011.08
2017-09-03T20:36:10.987Z,97014.02
2017-09-03T20:38:38.628Z,97010.62
2017-09-03T20:41:06.310Z,97016.13
2017-09-03T20:43:33.963Z,97015.70
2017-09-03T20:46:01.954Z,97019.92
2017-09-03T20:48:29.665Z,97017.38
2017-09-03T20:50:57.267Z,97016.52
2017-09-03T20:53:25.047Z,97023.72
2017-09-03T20:55:52.666Z,97019.92
2017-09-03T20:58:20.292Z,97025.83
2017-09-03T21:00:47.896Z,97027.96
2017-09-03T21:03:15.527Z,97024.14
2017-09-03T21:05:43.162Z,97025.44
2017-09-03T21:08:10.763Z,97026.25
2017-09-03T21:10:38.398Z,97034.31
2017-09-03T21:13:06.331Z,97026.23
2017-09-03T21:15:33.920Z,97034.70
2017-09-03T21:18:01.624Z,97027.93
2017-09-03T21:20:29.283Z,97038.53
2017-09-03T21:22:56.908Z,97031.72
2017-09-03T21:25:24.530Z,97034.26
2017-09-03T21:27:52.151Z,97033.39
2017-09-03T21:30:19.770Z,97025.31
2017-09-03T21:32:48.535Z,97028.72
2017-09-03T21:35:16.178Z,97023.18
2017-09-03T21:37:43.803Z,97018.09
2017-09-03T21:40:11.384Z,97026.14
2017-09-03T21:42:39.169Z,97026.97
2017-09-03T21:45:06.870Z,97026.09
2017-09-03T21:47:35.678Z,97026.51
2017-09-03T21:50:03.271Z,97029.06
2017-09-03T21:52:30.927Z,97025.67
2017-09-03T21:54:58.533Z,97031.99
2017-09-03T21:57:26.184Z,97033.66
2017-09-03T21:59:53.811Z,97031.06
2017-09-03T22:02:22.304Z,97028.50
2017-09-03T22:04:49.906Z,97023.84
2017-09-03T22:07:17.541Z,97027.20
2017-09-03T22:09:45.252Z,97022.58
2017-09-03T22:12:12.933Z,97021.70
2017-09-03T22:14:40.562Z,97020.41
2017-09-03T22:17:08.150Z,97019.95
2017-09-03T22:19:35.783Z,97017.86
2017-09-03T22:22:03.436Z,97021.22
2017-09-03T22:24:31.070Z,97017.80
2017-09-03T22:26:58.676Z,97015.23
2017-09-03T22:29:26.309Z,97014.38
2017-09-03T22:31:53.924Z,97015.63
2017-09-03T22:34:22.166Z,97014.38
2017-09-03T22:36:49.768Z,97020.70
2017-09-03T22:39:17.414Z,97014.28
2017-09-03T22:41:45.039Z,97011.30
2017-09-03T22:44:13.814Z,97007.48
2017-09-03T22:46:41.450Z,97013.43
2017-09-03T22:49:09.078Z,97005.39
2017-09-03T22:51:36.677Z,97010.47
2017-09-03T22:54:04.282Z,97016.36
2017-09-03T22:56:31.919Z,97006.19
2017-09-03T22:58:59.573Z,97004.50
2017-09-03T23:01:27.210Z,97010.84
2017-09-03T23:03:55.746Z,97005.36
2017-09-03T23:06:23.775Z,97013.39
2017-09-03T23:08:51.394Z,97011.30
2017-09-03T23:11:19.042Z,97010.84
2017-09-03T23:13:46.669Z,97009.58
2017-09-03T23:16:14.279Z,97004.88
2017-09-03T23:18:41.885Z,96999.78
2017-09-03T23:21:09.476Z,97000.63
2017-09-03T23:23:37.107Z,97000.16
2017-09-03T23:26:04.744Z,96999.72
2017-09-03T23:28:32.356Z,96994.60
2017-09-03T23:30:59.952Z,96990.73
2017-09-03T23:33:27.579Z,96988.61
2017-09-03T23:35:55.298Z,96989.90
2017-09-03T23:38:22.926Z,96989.84
2017-09-03T23:40:50.537Z,96996.59
2017-09-03T23:43:18.229Z,96989.38
2017-09-03T23:45:45.833Z,96981.78
2017-09-03T23:48:13.480Z,96975.84
2017-09-03T23:50:41.083Z,96981.78
2017-09-03T23:53:08.694Z,96980.92
2017-09-03T23:55:36.294Z,96978.81
2017-09-03T23:58:03.934Z,96980.92
